createdAt,value
2018-03-16T00:01:12.000Z,27.5
2018-03-16T00:03:12.000Z,27.5
2018-03-16T00:05:12.000Z,27.5
2018-03-16T00:07:12.000Z,27.5
2018-03-16T00:08:12.000Z,27.5
2018-03-16T00:10:12.000Z,27.5
2018-03-16T00:12:12.000Z,27.5
2018-03-16T00:13:13.000Z,27.4
2018-03-16T00:14:13.000Z,27.4
2018-03-16T00:16:13.000Z,27.5
2018-03-16T00:17:13.000Z,27.5
2018-03-16T00:19:13.000Z,27.5
2018-03-16T00:20:13.000Z,27.5
2018-03-16T00:21:13.000Z,27.6
2018-03-16T00:23:13.000Z,27.7
2018-03-16T00:25:13.000Z,27.6
2018-03-16T00:26:13.000Z,27.6
2018-03-16T00:28:13.000Z,27.5
2018-03-16T00:30:13.000Z,27.5
2018-03-16T00:32:13.000Z,27.4
2018-03-16T00:34:13.000Z,27.3
2018-03-16T00:36:13.000Z,27.2
2018-03-16T00:37:13.000Z,27.2
2018-03-16T00:39:13.000Z,27.3
2018-03-16T00:40:13.000Z,27.3
2018-03-16T00:41:13.000Z,27.4
2018-03-16T00:43:13.000Z,27.4
2018-03-16T00:45:13.000Z,27.4
2018-03-16T00:46:13.000Z,27.4
2018-03-16T00:48:13.000Z,27.4
2018-03-16T00:50:13.000Z,27.4
2018-03-16T00:52:13.000Z,27.4
2018-03-16T00:53:13.000Z,27.4
2018-03-16T00:54:57.000Z,27.5
2018-03-16T00:56:13.000Z,27.5
2018-03-16T00:57:13.000Z,27.5
2018-03-16T00:58:13.000Z,27.5
2018-03-16T00:59:13.000Z,27.6
2018-03-16T01:01:13.000Z,27.7
2018-03-16T01:02:13.000Z,27.7
2018-03-16T01:03:57.000Z,27.7
2018-03-16T01:05:13.000Z,27.6
2018-03-16T01:06:13.000Z,27.6
2018-03-16T01:08:13.000Z,27.6
2018-03-16T01:10:13.000Z,27.6
2018-03-16T01:11:13.000Z,27.6
2018-03-16T01:12:13.000Z,27.6
2018-03-16T01:13:13.000Z,27.7
2018-03-16T01:15:13.000Z,27.7
2018-03-16T01:16:13.000Z,27.7
2018-03-16T01:17:12.000Z,27.7
2018-03-16T01:19:12.000Z,27.7
2018-03-16T01:20:12.000Z,27.7
2018-03-16T01:22:12.000Z,27.6
2018-03-16T01:23:12.000Z,27.6
2018-03-16T01:25:12.000Z,27.6
2018-03-16T01:27:12.000Z,27.5
2018-03-16T01:28:12.000Z,27.5
2018-03-16T01:29:57.000Z,27.6
2018-03-16T01:31:12.000Z,27.5
2018-03-16T01:32:12.000Z,27.5
2018-03-16T01:34:12.000Z,27.6
2018-03-16T01:35:12.000Z,27.6
2018-03-16T01:37:12.000Z,27.5
2018-03-16T01:39:12.000Z,27.4
2018-03-16T01:40:12.000Z,27.4
2018-03-16T01:41:57.000Z,27.4
2018-03-16T01:43:12.000Z,27.4
2018-03-16T01:44:12.000Z,27.3
2018-03-16T01:46:12.000Z,27.4
2018-03-16T01:48:12.000Z,27.3
2018-03-16T01:49:12.000Z,27.4
2018-03-16T01:50:12.000Z,27.4
2018-03-16T01:51:12.000Z,27.5
2018-03-16T01:52:12.000Z,27.5
2018-03-16T01:54:12.000Z,27.5
2018-03-16T01:55:12.000Z,27.5
2018-03-16T01:56:12.000Z,27.5
2018-03-16T01:57:12.000Z,27.6
2018-03-16T01:59:12.000Z,27.6
2018-03-16T02:00:12.000Z,27.6
2018-03-16T02:02:12.000Z,27.6
2018-03-16T02:03:12.000Z,27.6
2018-03-16T02:05:12.000Z,27.5
2018-03-16T02:07:12.000Z,27.4
2018-03-16T02:08:12.000Z,27.4
2018-03-16T02:10:12.000Z,27.5
2018-03-16T02:12:12.000Z,27.4
2018-03-16T02:14:12.000Z,27.3
2018-03-16T02:15:12.000Z,27.3
2018-03-16T02:17:12.000Z,27.4
2018-03-16T02:22:13.000Z,26.9
2018-03-16T02:23:59.000Z,26.8
2018-03-16T02:25:59.000Z,26.9
2018-03-16T02:27:59.000Z,27
2018-03-16T02:29:59.000Z,27
2018-03-16T02:30:59.000Z,27
2018-03-16T02:32:59.000Z,27.1
2018-03-16T02:33:59.000Z,27.1
2018-03-16T02:34:59.000Z,27.2
2018-03-16T02:36:59.000Z,27.3
2018-03-16T02:38:59.000Z,27.4
2018-03-16T02:40:59.000Z,27.4
2018-03-16T02:42:59.000Z,27.3
2018-03-16T02:44:44.000Z,27.3
2018-03-16T02:45:59.000Z,27.2
2018-03-16T02:47:44.000Z,26.6
2018-03-16T02:49:59.000Z,27.1
2018-03-16T02:50:59.000Z,27.1
2018-03-16T02:52:59.000Z,27.1
2018-03-16T02:54:59.000Z,27.1
2018-03-16T02:56:59.000Z,27.1
2018-03-16T02:57:59.000Z,27.1
2018-03-16T02:59:59.000Z,27.1
2018-03-16T03:01:59.000Z,27.1
2018-03-16T03:03:44.000Z,27.2
2018-03-16T03:04:59.000Z,27.1
2018-03-16T03:05:59.000Z,27.2
2018-03-16T03:06:59.000Z,27.2
2018-03-16T03:08:59.000Z,27.2
2018-03-16T03:09:59.000Z,27.3
2018-03-16T03:10:59.000Z,27.3
2018-03-16T03:12:44.000Z,27.4
2018-03-16T03:13:59.000Z,27.4
2018-03-16T03:15:59.000Z,27.4
2018-03-16T03:17:59.000Z,27.3
2018-03-16T03:19:59.000Z,27.3
2018-03-16T03:21:59.000Z,27.2
2018-03-16T03:23:59.000Z,27.2
2018-03-16T03:24:59.000Z,27.2
2018-03-16T03:26:59.000Z,27.2
2018-03-16T03:27:59.000Z,27.2
2018-03-16T03:29:59.000Z,27.2
2018-03-16T03:30:59.000Z,27.2
2018-03-16T03:32:59.000Z,27.3
2018-03-16T03:33:59.000Z,27.4
2018-03-16T03:35:59.000Z,27.4
2018-03-16T03:36:59.000Z,27.3
2018-03-16T03:37:59.000Z,27.3
2018-03-16T03:38:59.000Z,27.4
2018-03-16T03:40:59.000Z,27.4
2018-03-16T03:42:59.000Z,27.4
2018-03-16T03:44:59.000Z,27.3
2018-03-16T03:45:59.000Z,27.3
2018-03-16T03:47:59.000Z,27.2
2018-03-16T03:49:59.000Z,27.2
2018-03-16T03:51:59.000Z,27.1
2018-03-16T03:52:59.000Z,27.2
2018-03-16T03:54:59.000Z,27.2
2018-03-16T03:55:59.000Z,27.2
2018-03-16T03:57:59.000Z,27.3
2018-03-16T03:58:59.000Z,27.3
2018-03-16T04:00:59.000Z,27.2
2018-03-16T04:02:59.000Z,27.2
2018-03-16T04:04:59.000Z,27.2
2018-03-16T04:05:59.000Z,27.2
2018-03-16T04:07:59.000Z,27.2
2018-03-16T04:08:59.000Z,27.3
2018-03-16T04:09:59.000Z,27.3
2018-03-16T04:11:59.000Z,27.4
2018-03-16T04:13:59.000Z,27.4
2018-03-16T04:14:59.000Z,27.4
2018-03-16T04:16:59.000Z,27.4
2018-03-16T04:18:59.000Z,27.3
2018-03-16T04:20:59.000Z,27.2
2018-03-16T04:22:59.000Z,27.1
2018-03-16T04:23:59.000Z,27.1
2018-03-16T04:25:59.000Z,27.2
2018-03-16T04:27:59.000Z,27.2
2018-03-16T04:29:59.000Z,27.2
2018-03-16T04:31:59.000Z,27.2
2018-03-16T04:32:59.000Z,27.2
2018-03-16T04:34:59.000Z,27.2
2018-03-16T04:36:59.000Z,27.2
2018-03-16T04:38:59.000Z,27.1
2018-03-16T04:39:59.000Z,27.1
2018-03-16T04:40:59.000Z,27.2
2018-03-16T04:42:59.000Z,27.3
2018-03-16T04:44:59.000Z,27.3
2018-03-16T04:46:59.000Z,27.3
2018-03-16T04:47:59.000Z,27.3
2018-03-16T04:48:59.000Z,27.3
2018-03-16T04:50:44.000Z,27.4
2018-03-16T04:51:59.000Z,27.4
2018-03-16T04:53:59.000Z,27.4
2018-03-16T04:54:59.000Z,27.4
2018-03-16T04:55:59.000Z,27.4
2018-03-16T04:56:59.000Z,27.4
2018-03-16T04:58:59.000Z,27.4
2018-03-16T04:59:59.000Z,27.3
2018-03-16T05:01:44.000Z,27.3
2018-03-16T05:02:59.000Z,27.3
2018-03-16T05:03:59.000Z,27.3
2018-03-16T05:05:59.000Z,27.3
2018-03-16T05:06:59.000Z,27.3
2018-03-16T05:07:59.000Z,27.3
2018-03-16T05:08:59.000Z,27.4
2018-03-16T05:10:44.000Z,27.4
2018-03-16T05:11:59.000Z,27.4
2018-03-16T05:12:59.000Z,27.4
2018-03-16T05:14:59.000Z,27.4
2018-03-16T05:16:59.000Z,27.3
2018-03-16T05:18:59.000Z,27.2
2018-03-16T05:19:59.000Z,27.3
2018-03-16T05:20:59.000Z,27.2
2018-03-16T05:22:59.000Z,27.2
2018-03-16T05:23:59.000Z,27.1
2018-03-16T05:25:59.000Z,27.2
2018-03-16T05:27:59.000Z,27.2
2018-03-16T05:29:59.000Z,27.2
2018-03-16T05:30:59.000Z,27.2
2018-03-16T05:31:59.000Z,27.2
2018-03-16T05:32:59.000Z,27.3
2018-03-16T05:36:14.000Z,27.6
2018-03-16T05:38:01.000Z,27.8
2018-03-16T05:39:01.000Z,27.8
2018-03-16T05:40:01.000Z,27.8
2018-03-16T05:42:01.000Z,27.8
2018-03-16T05:43:01.000Z,27.8
2018-03-16T05:45:01.000Z,27.7
2018-03-16T05:46:01.000Z,27.7
2018-03-16T05:48:01.000Z,27.7
2018-03-16T05:50:01.000Z,27.6
2018-03-16T05:51:01.000Z,27.5
2018-03-16T05:53:01.000Z,27.5
2018-03-16T05:55:01.000Z,27.4
2018-03-16T05:56:01.000Z,27.4
2018-03-16T05:58:01.000Z,27.5
2018-03-16T06:00:01.000Z,27.5
2018-03-16T06:01:01.000Z,27.5
2018-03-16T06:03:01.000Z,27.5
2018-03-16T06:04:46.000Z,27.6
2018-03-16T06:06:01.000Z,27.6
2018-03-16T06:08:01.000Z,27.6
2018-03-16T06:09:01.000Z,27.6
2018-03-16T06:11:01.000Z,27.6
2018-03-16T06:12:01.000Z,27.7
2018-03-16T06:13:46.000Z,27.8
2018-03-16T06:15:01.000Z,27.8
2018-03-16T06:16:01.000Z,27.9
2018-03-16T06:17:01.000Z,27.9
2018-03-16T06:18:01.000Z,28
2018-03-16T06:19:01.000Z,28
2018-03-16T06:20:46.000Z,28.1
2018-03-16T06:22:01.000Z,28
2018-03-16T06:23:01.000Z,28
2018-03-16T06:24:01.000Z,28.1
2018-03-16T06:25:01.000Z,28.1
2018-03-16T06:27:01.000Z,28.1
2018-03-16T06:28:01.000Z,28.1
2018-03-16T06:29:46.000Z,28.1
2018-03-16T06:31:01.000Z,28
2018-03-16T06:32:01.000Z,28
2018-03-16T06:33:01.000Z,28
2018-03-16T06:34:01.000Z,28
2018-03-16T06:36:01.000Z,28.1
2018-03-16T06:37:01.000Z,28.1
2018-03-16T06:38:01.000Z,28.1
2018-03-16T06:40:01.000Z,28.2
2018-03-16T06:41:01.000Z,28.2
2018-03-16T06:43:01.000Z,28.2
2018-03-16T06:44:01.000Z,28.2
2018-03-16T06:46:01.000Z,28.2
2018-03-16T06:47:01.000Z,28.2
2018-03-16T06:48:01.000Z,28.2
2018-03-16T06:50:01.000Z,28.2
2018-03-16T06:52:01.000Z,28.1
2018-03-16T06:53:01.000Z,28.1
2018-03-16T06:54:46.000Z,28.1
2018-03-16T06:56:01.000Z,28.1
2018-03-16T06:57:01.000Z,28.1
2018-03-16T06:59:01.000Z,28.1
2018-03-16T07:01:01.000Z,28.1
2018-03-16T07:03:01.000Z,28
2018-03-16T07:04:01.000Z,28
2018-03-16T07:06:01.000Z,28
2018-03-16T07:08:01.000Z,27.9
2018-03-16T07:09:01.000Z,28
2018-03-16T07:11:01.000Z,28
2018-03-16T07:12:01.000Z,28
2018-03-16T07:14:01.000Z,28.1
2018-03-16T07:16:01.000Z,28.1
2018-03-16T07:17:01.000Z,28.1
2018-03-16T07:19:01.000Z,28.1
2018-03-16T07:21:01.000Z,28.1
2018-03-16T07:22:01.000Z,28.1
2018-03-16T07:24:01.000Z,28.2
2018-03-16T07:26:01.000Z,28.1
2018-03-16T07:28:01.000Z,28.1
2018-03-16T07:30:01.000Z,28
2018-03-16T07:31:01.000Z,28
2018-03-16T07:33:01.000Z,28
2018-03-16T07:34:01.000Z,28
2018-03-16T07:36:01.000Z,28.1
2018-03-16T07:37:01.000Z,28.1
2018-03-16T07:38:01.000Z,28.1
2018-03-16T07:40:01.000Z,28.2
2018-03-16T07:42:01.000Z,28.2
2018-03-16T07:43:01.000Z,28.2
2018-03-16T07:44:01.000Z,28.2
2018-03-16T07:46:01.000Z,28.3
2018-03-16T07:47:01.000Z,28.3
2018-03-16T07:48:01.000Z,28.3
2018-03-16T07:49:46.000Z,28.3
2018-03-16T07:51:01.000Z,28.3
2018-03-16T07:53:01.000Z,28.3
2018-03-16T07:54:01.000Z,28.3
2018-03-16T07:55:01.000Z,28.3
2018-03-16T07:56:01.000Z,28.3
2018-03-16T07:57:01.000Z,28.3
2018-03-16T07:59:01.000Z,28.4
2018-03-16T08:01:01.000Z,28.4
2018-03-16T08:02:01.000Z,28.3
2018-03-16T08:04:01.000Z,28.3
2018-03-16T08:05:01.000Z,28.4
2018-03-16T08:07:01.000Z,28.4
2018-03-16T08:08:01.000Z,28.4
2018-03-16T08:09:01.000Z,28.4
2018-03-16T08:11:01.000Z,28.3
2018-03-16T08:12:01.000Z,28.3
2018-03-16T08:13:01.000Z,28.3
2018-03-16T08:15:01.000Z,28.3
2018-03-16T08:16:01.000Z,28.3
2018-03-16T08:18:01.000Z,28.4
2018-03-16T08:19:01.000Z,28.4
2018-03-16T08:21:01.000Z,28.4
2018-03-16T08:22:01.000Z,28.4
2018-03-16T08:24:01.000Z,28.4
2018-03-16T08:25:01.000Z,28.4
2018-03-16T08:26:01.000Z,28.5
2018-03-16T08:28:01.000Z,28.4
2018-03-16T08:30:01.000Z,28.4
2018-03-16T08:31:46.000Z,28.3
2018-03-16T08:33:01.000Z,28.3
2018-03-16T08:35:01.000Z,28.2
2018-03-16T08:36:01.000Z,28.2
2018-03-16T08:37:01.000Z,28.3
2018-03-16T08:39:01.000Z,28.4
2018-03-16T08:41:01.000Z,28.4
2018-03-16T08:42:01.000Z,28.4
2018-03-16T08:44:01.000Z,28.4
2018-03-16T08:45:46.000Z,28.4
2018-03-16T08:47:01.000Z,28.4
2018-03-16T08:49:01.000Z,28.4
2018-03-16T08:50:01.000Z,28.3
2018-03-16T08:51:01.000Z,28.4
2018-03-16T08:52:01.000Z,28.4
2018-03-16T08:54:01.000Z,28.5
2018-03-16T08:55:01.000Z,28.5
2018-03-16T08:57:01.000Z,28.6
2018-03-16T08:58:01.000Z,28.6
2018-03-16T09:00:01.000Z,28.6
2018-03-16T09:01:01.000Z,28.6
2018-03-16T09:03:01.000Z,28.6
2018-03-16T09:04:46.000Z,28.6
2018-03-16T09:06:01.000Z,28.5
2018-03-16T09:07:01.000Z,28.5
2018-03-16T09:08:01.000Z,28.6
2018-03-16T09:10:01.000Z,28.6
2018-03-16T09:11:01.000Z,28.7
2018-03-16T09:13:01.000Z,28.7
2018-03-16T09:14:01.000Z,28.7
2018-03-16T09:16:01.000Z,28.8
2018-03-16T09:18:01.000Z,28.8
2018-03-16T09:20:01.000Z,28.7
2018-03-16T09:21:01.000Z,28.7
2018-03-16T09:23:01.000Z,28.6
2018-03-16T09:25:01.000Z,28.6
2018-03-16T09:26:01.000Z,28.6
2018-03-16T09:27:01.000Z,28.6
2018-03-16T09:28:01.000Z,28.6
2018-03-16T09:30:01.000Z,28.7
2018-03-16T09:31:01.000Z,28.7
2018-03-16T09:33:01.000Z,28.7
2018-03-16T09:34:01.000Z,28.7
2018-03-16T09:36:01.000Z,28.7
2018-03-16T09:38:01.000Z,28.7
2018-03-16T09:39:01.000Z,28.7
2018-03-16T09:40:01.000Z,28.8
2018-03-16T09:41:01.000Z,28.8
2018-03-16T09:43:01.000Z,28.8
2018-03-16T09:45:00.000Z,28.8
2018-03-16T09:46:00.000Z,28.9
2018-03-16T09:47:00.000Z,28.9
2018-03-16T09:49:00.000Z,29
2018-03-16T09:51:00.000Z,29
2018-03-16T09:53:00.000Z,28.9
2018-03-16T09:55:00.000Z,28.8
2018-03-16T09:57:00.000Z,28.8
2018-03-16T09:59:00.000Z,28.8
2018-03-16T10:00:00.000Z,28.9
2018-03-16T10:01:00.000Z,29
2018-03-16T10:03:00.000Z,29.1
2018-03-16T10:04:45.000Z,29.2
2018-03-16T10:06:00.000Z,29.2
2018-03-16T10:07:00.000Z,29.2
2018-03-16T10:09:00.000Z,29.2
2018-03-16T10:11:00.000Z,29.2
2018-03-16T10:13:00.000Z,29.2
2018-03-16T10:15:00.000Z,29.2
2018-03-16T10:17:00.000Z,29.2
2018-03-16T10:19:00.000Z,29.2
2018-03-16T10:21:00.000Z,29.2
2018-03-16T10:22:00.000Z,29.3
2018-03-16T10:24:00.000Z,29.4
2018-03-16T10:26:00.000Z,29.5
2018-03-16T10:27:00.000Z,29.5
2018-03-16T10:29:00.000Z,29.6
2018-03-16T10:31:00.000Z,29.6
2018-03-16T10:33:00.000Z,29.6
2018-03-16T10:34:00.000Z,29.6
2018-03-16T10:36:00.000Z,29.6
2018-03-16T10:37:00.000Z,29.6
2018-03-16T10:39:00.000Z,29.7
2018-03-16T10:40:00.000Z,29.7
2018-03-16T10:41:00.000Z,29.8
2018-03-16T10:43:00.000Z,29.8
2018-03-16T10:45:00.000Z,29.7
2018-03-16T10:46:00.000Z,29.7
2018-03-16T10:48:00.000Z,29.7
2018-03-16T10:50:01.000Z,29.6
2018-03-16T10:52:01.000Z,29.6
2018-03-16T10:53:46.000Z,29.5
2018-03-16T10:55:01.000Z,29.4
2018-03-16T10:56:01.000Z,29.5
2018-03-16T10:58:01.000Z,29.5
2018-03-16T11:00:01.000Z,29.5
2018-03-16T11:02:01.000Z,29.5
2018-03-16T11:04:01.000Z,29.5
2018-03-16T11:05:46.000Z,29.6
2018-03-16T11:07:01.000Z,29.5
2018-03-16T11:09:01.000Z,29.5
2018-03-16T11:11:01.000Z,29.4
2018-03-16T11:12:01.000Z,29.4
2018-03-16T11:13:01.000Z,29.5
2018-03-16T11:15:01.000Z,29.6
2018-03-16T11:17:01.000Z,29.6
2018-03-16T11:18:46.000Z,29.6
2018-03-16T11:20:01.000Z,29.6
2018-03-16T11:21:01.000Z,29.6
2018-03-16T11:23:01.000Z,29.8
2018-03-16T11:24:01.000Z,29.8
2018-03-16T11:26:01.000Z,29.9
2018-03-16T11:28:01.000Z,29.9
2018-03-16T11:29:01.000Z,29.9
2018-03-16T11:31:01.000Z,29.9
2018-03-16T11:32:01.000Z,29.9
2018-03-16T11:33:46.000Z,30
2018-03-16T11:35:01.000Z,29.9
2018-03-16T11:37:01.000Z,29.9
2018-03-16T11:39:01.000Z,29.8
2018-03-16T11:40:01.000Z,29.8
2018-03-16T11:42:01.000Z,29.8
2018-03-16T11:44:01.000Z,29.7
2018-03-16T11:45:01.000Z,29.7
2018-03-16T11:47:01.000Z,29.7
2018-03-16T11:48:01.000Z,29.7
2018-03-16T11:49:01.000Z,29.7
2018-03-16T11:50:01.000Z,29.8
2018-03-16T11:52:01.000Z,29.8
2018-03-16T11:54:01.000Z,29.8
2018-03-16T11:55:01.000Z,29.8
2018-03-16T11:57:01.000Z,29.8
2018-03-16T11:59:01.000Z,29.8
2018-03-16T12:00:01.000Z,29.8
2018-03-16T12:02:01.000Z,29.8
2018-03-16T12:03:01.000Z,29.8
2018-03-16T12:04:01.000Z,29.8
2018-03-16T12:06:01.000Z,29.8
2018-03-16T12:08:01.000Z,29.7
2018-03-16T12:10:01.000Z,29.5
2018-03-16T12:11:01.000Z,29.5
2018-03-16T12:12:01.000Z,29.5
2018-03-16T12:13:01.000Z,29.6
2018-03-16T12:14:46.000Z,29.6
2018-03-16T12:16:01.000Z,29.5
2018-03-16T12:17:01.000Z,29.6
2018-03-16T12:18:01.000Z,29.6
2018-03-16T12:20:01.000Z,29.7
2018-03-16T12:22:01.000Z,29.6
2018-03-16T12:23:01.000Z,29.6
2018-03-16T12:25:01.000Z,29.6
2018-03-16T12:27:01.000Z,29.6
2018-03-16T12:28:01.000Z,29.6
2018-03-16T12:30:01.000Z,29.7
2018-03-16T12:32:01.000Z,29.7
2018-03-16T12:34:01.000Z,29.6
2018-03-16T12:36:01.000Z,29.5
2018-03-16T12:37:01.000Z,29.5
2018-03-16T12:38:01.000Z,29.6
2018-03-16T12:40:01.000Z,29.6
2018-03-16T12:41:01.000Z,29.6
2018-03-16T12:43:01.000Z,29.6
2018-03-16T12:44:01.000Z,29.6
2018-03-16T12:45:01.000Z,29.7
2018-03-16T12:46:01.000Z,29.7
2018-03-16T12:47:01.000Z,29.8
2018-03-16T12:48:01.000Z,29.8
2018-03-16T12:49:46.000Z,29.8
2018-03-16T12:51:01.000Z,29.7
2018-03-16T12:52:01.000Z,29.7
2018-03-16T12:54:01.000Z,29.6
2018-03-16T12:55:01.000Z,29.6
2018-03-16T12:57:01.000Z,29.5
2018-03-16T12:58:01.000Z,29.5
2018-03-16T13:00:01.000Z,29.4
2018-03-16T13:02:01.000Z,29.4
2018-03-16T13:04:01.000Z,29.3
2018-03-16T13:05:46.000Z,28.9
2018-03-16T13:07:01.000Z,29.3
2018-03-16T13:09:01.000Z,29.2
2018-03-16T13:10:01.000Z,29.2
2018-03-16T13:12:01.000Z,29.2
2018-03-16T13:14:01.000Z,29.3
2018-03-16T13:16:01.000Z,29.2
2018-03-16T13:17:01.000Z,29.3
2018-03-16T13:19:01.000Z,29.3
2018-03-16T13:20:01.000Z,29.3
2018-03-16T13:22:01.000Z,29.3
2018-03-16T13:23:01.000Z,29.3
2018-03-16T13:24:01.000Z,29.3
2018-03-16T13:26:01.000Z,29.3
2018-03-16T13:28:01.000Z,29.2
2018-03-16T13:30:01.000Z,29.2
2018-03-16T13:31:01.000Z,29.2
2018-03-16T13:33:01.000Z,29.3
2018-03-16T13:34:46.000Z,29.3
2018-03-16T13:36:01.000Z,29.2
2018-03-16T13:38:01.000Z,29.1
2018-03-16T13:40:01.000Z,29.1
2018-03-16T13:41:01.000Z,29.1
2018-03-16T13:42:01.000Z,29.1
2018-03-16T13:43:46.000Z,29.1
2018-03-16T13:45:01.000Z,29.1
2018-03-16T13:47:01.000Z,29
2018-03-16T13:48:01.000Z,29
2018-03-16T13:49:01.000Z,29
2018-03-16T13:50:01.000Z,29.1
2018-03-16T13:51:01.000Z,29.2
2018-03-16T13:53:01.000Z,29.2
2018-03-16T13:54:01.000Z,29.2
2018-03-16T13:56:01.000Z,29.3
2018-03-16T13:58:01.000Z,29.2
2018-03-16T13:59:01.000Z,29.1
2018-03-16T14:01:01.000Z,29.1
2018-03-16T14:02:01.000Z,29.1
2018-03-16T14:04:01.000Z,29.2
2018-03-16T14:06:01.000Z,29.1
2018-03-16T14:07:01.000Z,29.1
2018-03-16T14:09:01.000Z,29.1
2018-03-16T14:11:01.000Z,29
2018-03-16T14:13:01.000Z,29
2018-03-16T14:15:01.000Z,28.9
2018-03-16T14:17:01.000Z,28.8
2018-03-16T14:18:01.000Z,28.8
2018-03-16T14:20:01.000Z,28.8
2018-03-16T14:22:01.000Z,28.8
2018-03-16T14:24:01.000Z,28.8
2018-03-16T14:25:01.000Z,28.8
2018-03-16T14:27:01.000Z,28.9
2018-03-16T14:28:01.000Z,28.9
2018-03-16T14:30:01.000Z,28.9
2018-03-16T14:32:01.000Z,28.8
2018-03-16T14:34:01.000Z,28.7
2018-03-16T14:36:01.000Z,28.6
2018-03-16T14:38:01.000Z,28.6
2018-03-16T14:39:01.000Z,28.6
2018-03-16T14:40:01.000Z,28.7
2018-03-16T14:42:01.000Z,28.7
2018-03-16T14:43:01.000Z,28.8
2018-03-16T14:45:01.000Z,28.8
2018-03-16T14:47:01.000Z,28.7
2018-03-16T14:49:01.000Z,28.6
2018-03-16T14:50:01.000Z,28.6
2018-03-16T14:52:01.000Z,28.6
2018-03-16T14:53:01.000Z,28.6
2018-03-16T14:55:01.000Z,28.6
2018-03-16T14:56:01.000Z,28.7
2018-03-16T14:57:01.000Z,28.7
2018-03-16T14:59:01.000Z,28.7
2018-03-16T15:00:01.000Z,28.7
2018-03-16T15:01:46.000Z,28.7
2018-03-16T15:03:01.000Z,28.7
2018-03-16T15:05:01.000Z,28.7
2018-03-16T15:07:01.000Z,28.7
2018-03-16T15:09:01.000Z,28.6
2018-03-16T15:11:01.000Z,28.6
2018-03-16T15:12:01.000Z,28.6
2018-03-16T15:14:01.000Z,28.7
2018-03-16T15:16:01.000Z,28.6
2018-03-16T15:18:01.000Z,28.5
2018-03-16T15:19:01.000Z,28.5
2018-03-16T15:20:46.000Z,28.6
2018-03-16T15:22:01.000Z,28.6
2018-03-16T15:23:01.000Z,28.6
2018-03-16T15:24:01.000Z,28.6
2018-03-16T15:26:01.000Z,28.7
2018-03-16T15:27:01.000Z,28.7
2018-03-16T15:29:01.000Z,28.7
2018-03-16T15:30:01.000Z,28.7
2018-03-16T15:31:01.000Z,28.7
2018-03-16T15:32:01.000Z,28.8
2018-03-16T15:34:01.000Z,28.8
2018-03-16T15:35:01.000Z,28.8
2018-03-16T15:37:01.000Z,28.8
2018-03-16T15:38:01.000Z,28.8
2018-03-16T15:40:01.000Z,28.8
2018-03-16T15:41:01.000Z,28.8
2018-03-16T15:43:01.000Z,28.8
2018-03-16T15:45:01.000Z,28.7
2018-03-16T15:47:01.000Z,28.6
2018-03-16T15:48:01.000Z,28.6
2018-03-16T15:49:01.000Z,28.5
2018-03-16T15:50:01.000Z,28.6
2018-03-16T15:52:01.000Z,28.6
2018-03-16T15:53:01.000Z,28.6
2018-03-16T15:54:01.000Z,28.7
2018-03-16T15:55:01.000Z,28.7
2018-03-16T15:57:01.000Z,28.8
2018-03-16T15:58:01.000Z,28.8
2018-03-16T15:59:01.000Z,28.8
2018-03-16T16:00:01.000Z,28.9
2018-03-16T16:01:01.000Z,28.9
2018-03-16T16:02:46.000Z,28.9
2018-03-16T16:04:01.000Z,28.9
2018-03-16T16:06:01.000Z,28.7
2018-03-16T16:08:01.000Z,28.6
2018-03-16T16:09:01.000Z,28.6
2018-03-16T16:11:01.000Z,28.6
2018-03-16T16:13:01.000Z,28.5
2018-03-16T16:14:01.000Z,28.5
2018-03-16T16:15:01.000Z,28.6
2018-03-16T16:17:01.000Z,28.6
2018-03-16T16:19:01.000Z,28.6
2018-03-16T16:21:01.000Z,28.5
2018-03-16T16:22:01.000Z,28.5
2018-03-16T16:23:01.000Z,28.5
2018-03-16T16:25:01.000Z,28.6
2018-03-16T16:26:01.000Z,28.6
2018-03-16T16:27:01.000Z,28.6
2018-03-16T16:29:01.000Z,28.6
2018-03-16T16:31:01.000Z,28.6
2018-03-16T16:33:01.000Z,28.5
2018-03-16T16:35:01.000Z,28.4
2018-03-16T16:36:01.000Z,28.3
2018-03-16T16:38:01.000Z,28.4
2018-03-16T16:39:01.000Z,28.4
2018-03-16T16:40:46.000Z,28.4
2018-03-16T16:42:01.000Z,28.4
2018-03-16T16:44:01.000Z,28.3
2018-03-16T16:45:01.000Z,28.3
2018-03-16T16:47:01.000Z,28.3
2018-03-16T16:48:01.000Z,28.3
2018-03-16T16:50:01.000Z,28.3
2018-03-16T16:51:01.000Z,28.4
2018-03-16T16:53:01.000Z,28.4
2018-03-16T16:54:01.000Z,28.4
2018-03-16T16:56:01.000Z,28.4
2018-03-16T16:58:01.000Z,28.3
2018-03-16T17:00:01.000Z,28.2
2018-03-16T17:01:01.000Z,28.1
2018-03-16T17:03:01.000Z,28.1
2018-03-16T17:04:01.000Z,28.2
2018-03-16T17:05:01.000Z,28.2
2018-03-16T17:06:46.000Z,28.3
2018-03-16T17:08:01.000Z,28.3
2018-03-16T17:10:01.000Z,28.2
2018-03-16T17:11:01.000Z,28.2
2018-03-16T17:12:01.000Z,28.3
2018-03-16T17:13:01.000Z,28.3
2018-03-16T17:15:01.000Z,28.2
2018-03-16T17:17:01.000Z,28.2
2018-03-16T17:19:01.000Z,28.1
2018-03-16T17:20:01.000Z,28.1
2018-03-16T17:21:01.000Z,28.2
2018-03-16T17:22:01.000Z,28.2
2018-03-16T17:23:01.000Z,28.3
2018-03-16T17:25:01.000Z,28.3
2018-03-16T17:27:01.000Z,28.2
2018-03-16T17:28:01.000Z,28.2
2018-03-16T17:30:01.000Z,28.2
2018-03-16T17:31:01.000Z,28.2
2018-03-16T17:33:01.000Z,28.2
2018-03-16T17:34:01.000Z,28.2
2018-03-16T17:35:01.000Z,28.3
2018-03-16T17:36:01.000Z,28.3
2018-03-16T17:38:01.000Z,28.3
2018-03-16T17:39:01.000Z,28.3
2018-03-16T17:40:46.000Z,28.3
2018-03-16T17:42:01.000Z,28.2
2018-03-16T17:43:01.000Z,28.2
2018-03-16T17:45:01.000Z,28.2
2018-03-16T17:46:01.000Z,28.2
2018-03-16T17:47:46.000Z,28.2
2018-03-16T17:49:01.000Z,28.1
2018-03-16T17:50:46.000Z,28.1
2018-03-16T17:52:01.000Z,28
2018-03-16T17:53:01.000Z,28
2018-03-16T17:54:01.000Z,28
2018-03-16T17:56:01.000Z,28
2018-03-16T17:57:01.000Z,28
2018-03-16T17:58:01.000Z,28.1
2018-03-16T17:59:01.000Z,28.1
2018-03-16T18:00:01.000Z,28.1
2018-03-16T18:01:46.000Z,28.2
2018-03-16T18:03:01.000Z,28.1
2018-03-16T18:04:01.000Z,28.2
2018-03-16T18:05:01.000Z,28.2
2018-03-16T18:07:01.000Z,28.2
2018-03-16T18:08:01.000Z,28.2
2018-03-16T18:10:01.000Z,28.2
2018-03-16T18:11:01.000Z,28.2
2018-03-16T18:12:01.000Z,28.2
2018-03-16T18:13:01.000Z,28.2
2018-03-16T18:15:01.000Z,28.1
2018-03-16T18:16:01.000Z,28.1
2018-03-16T18:18:01.000Z,28.1
2018-03-16T18:20:01.000Z,28
2018-03-16T18:21:01.000Z,28
2018-03-16T18:22:01.000Z,28
2018-03-16T18:24:01.000Z,28.1
2018-03-16T18:26:01.000Z,28
2018-03-16T18:27:01.000Z,28
2018-03-16T18:29:01.000Z,28
2018-03-16T18:30:01.000Z,28
2018-03-16T18:31:01.000Z,28.1
2018-03-16T18:32:01.000Z,28.1
2018-03-16T18:34:01.000Z,28.1
2018-03-16T18:36:01.000Z,28
2018-03-16T18:37:01.000Z,28
2018-03-16T18:38:01.000Z,28
2018-03-16T18:39:01.000Z,28
2018-03-16T18:41:01.000Z,28
2018-03-16T18:43:01.000Z,27.8
2018-03-16T18:44:01.000Z,27.8
2018-03-16T18:45:01.000Z,27.8
2018-03-16T18:46:46.000Z,27.1
2018-03-16T18:48:01.000Z,27.8
2018-03-16T18:49:01.000Z,27.8
2018-03-16T18:50:01.000Z,27.8
2018-03-16T18:52:01.000Z,27.8
2018-03-16T18:53:46.000Z,27.8
2018-03-16T18:55:01.000Z,27.7
2018-03-16T18:56:01.000Z,27.7
2018-03-16T18:57:01.000Z,27.8
2018-03-16T18:58:01.000Z,27.9
2018-03-16T19:00:01.000Z,28
2018-03-16T19:01:01.000Z,28
2018-03-16T19:02:01.000Z,28
2018-03-16T19:04:01.000Z,28
2018-03-16T19:06:01.000Z,28
2018-03-16T19:07:01.000Z,28
2018-03-16T19:09:01.000Z,27.9
2018-03-16T19:10:01.000Z,27.9
2018-03-16T19:11:01.000Z,27.9
2018-03-16T19:13:01.000Z,27.9
2018-03-16T19:14:01.000Z,27.9
2018-03-16T19:16:01.000Z,27.8
2018-03-16T19:17:01.000Z,27.9
2018-03-16T19:18:01.000Z,27.9
2018-03-16T19:20:01.000Z,27.9
2018-03-16T19:22:01.000Z,27.8
2018-03-16T19:23:46.000Z,27.8
2018-03-16T19:25:01.000Z,27.7
2018-03-16T19:26:01.000Z,27.7
2018-03-16T19:27:01.000Z,27.7
2018-03-16T19:29:01.000Z,27.7
2018-03-16T19:31:01.000Z,27.6
2018-03-16T19:32:01.000Z,27.6
2018-03-16T19:33:01.000Z,27.7
2018-03-16T19:35:01.000Z,27.7
2018-03-16T19:37:01.000Z,27.7
2018-03-16T19:38:01.000Z,27.8
2018-03-16T19:40:01.000Z,27.7
2018-03-16T19:42:01.000Z,27.6
2018-03-16T19:44:01.000Z,27.6
2018-03-16T19:46:01.000Z,27.6
2018-03-16T19:47:01.000Z,27.6
2018-03-16T19:48:01.000Z,27.6
2018-03-16T19:50:01.000Z,27.6
2018-03-16T19:51:01.000Z,27.5
2018-03-16T19:52:01.000Z,27.5
2018-03-16T19:54:01.000Z,27.5
2018-03-16T19:56:01.000Z,27.5
2018-03-16T19:58:01.000Z,27.4
2018-03-16T19:59:01.000Z,27.4
2018-03-16T20:00:01.000Z,27.5
2018-03-16T20:02:01.000Z,27.5
2018-03-16T20:03:01.000Z,27.5
2018-03-16T20:04:01.000Z,27.5
2018-03-16T20:06:01.000Z,27.6
2018-03-16T20:07:01.000Z,27.6
2018-03-16T20:09:01.000Z,27.6
2018-03-16T20:10:01.000Z,27.5
2018-03-16T20:11:01.000Z,27.5
2018-03-16T20:12:01.000Z,27.6
2018-03-16T20:14:01.000Z,27.6
2018-03-16T20:16:01.000Z,27.5
2018-03-16T20:18:01.000Z,27.4
2018-03-16T20:19:01.000Z,27.4
2018-03-16T20:21:01.000Z,27.3
2018-03-16T20:23:01.000Z,27.3
2018-03-16T20:25:01.000Z,27.2